createdAt,value
2023-09-11T00:01:24.589Z,6.85
2023-09-11T00:03:52.383Z,6.57
2023-09-11T00:06:19.986Z,6.63
2023-09-11T00:08:47.471Z,7.03
2023-09-11T00:11:14.983Z,6.97
2023-09-11T00:13:42.440Z,7.32
2023-09-11T00:16:10.042Z,7.97
2023-09-11T00:18:39.624Z,6.97
2023-09-11T00:21:07.422Z,6.90
2023-09-11T00:23:34.874Z,6.90
2023-09-11T00:26:02.557Z,6.60
2023-09-11T00:28:30.360Z,7.30
2023-09-11T00:31:01.641Z,7.80
2023-09-11T00:33:29.209Z,6.53
2023-09-11T00:35:56.868Z,7.63
2023-09-11T00:38:24.486Z,7.10
2023-09-11T00:40:51.977Z,7.15
2023-09-11T00:43:19.429Z,7.03
2023-09-11T00:45:47.797Z,6.93
2023-09-11T00:48:15.345Z,6.55
2023-09-11T00:50:45.550Z,6.53
2023-09-11T00:55:41.566Z,6.35
2023-09-11T00:58:09.033Z,5.78
2023-09-11T01:00:36.608Z,6.03
2023-09-11T01:03:04.764Z,6.60
2023-09-11T01:05:33.284Z,6.65
2023-09-11T01:08:01.561Z,6.45
2023-09-11T01:10:29.050Z,6.03
2023-09-11T01:12:56.681Z,6.40
2023-09-11T01:15:27.090Z,6.72
2023-09-11T01:21:23.741Z,5.95
2023-09-11T01:25:08.933Z,5.95
2023-09-11T01:28:37.924Z,6.50
2023-09-11T01:31:06.342Z,6.32
2023-09-11T01:33:34.635Z,6.65
2023-09-11T01:36:02.107Z,6.43
2023-09-11T01:38:29.634Z,5.57
2023-09-11T01:41:02.365Z,6.18
2023-09-11T01:43:38.494Z,5.95
2023-09-11T01:46:07.393Z,6.93
2023-09-11T01:48:36.832Z,6.18
2023-09-11T01:51:06.558Z,6.03
2023-09-11T01:53:34.242Z,6.53
2023-09-11T05:34:36.555Z,7.60
2023-09-11T05:37:04.331Z,7.32
2023-09-11T05:48:54.445Z,8.93
2023-09-11T05:51:21.938Z,7.82
2023-09-11T05:53:49.481Z,8.88
2023-09-11T05:56:18.015Z,7.10
2023-09-11T05:58:45.461Z,7.93
2023-09-11T06:01:15.082Z,7.65
2023-09-11T06:03:43.006Z,8.27
2023-09-11T06:06:10.867Z,7.40
2023-09-11T06:08:38.772Z,7.80
2023-09-11T06:11:06.482Z,8.23
2023-09-11T06:13:35.246Z,8.20
2023-09-11T06:16:03.003Z,7.45
2023-09-11T06:18:30.677Z,8.50
2023-09-11T06:20:58.287Z,7.43
2023-09-11T06:23:25.921Z,8.43
2023-09-11T06:25:53.607Z,7.95
2023-09-11T06:28:21.249Z,7.63
2023-09-11T06:30:49.106Z,7.03
2023-09-11T06:33:16.634Z,7.13
2023-09-11T06:35:44.275Z,7.60
2023-09-11T06:38:13.192Z,7.97
2023-09-11T06:40:40.654Z,7.25
2023-09-11T06:43:08.070Z,7.63
2023-09-11T06:45:37.024Z,7.55
2023-09-11T06:48:04.840Z,8.38
2023-09-11T06:50:32.753Z,7.97
2023-09-11T06:53:00.244Z,7.93
2023-09-11T06:55:27.693Z,8.15
2023-09-11T06:58:03.017Z,7.93
2023-09-11T07:00:30.809Z,7.60
2023-09-11T07:02:58.351Z,7.35
2023-09-11T07:05:28.121Z,7.90
2023-09-11T07:07:55.788Z,7.90
2023-09-11T07:10:38.298Z,7.72
2023-09-11T07:13:09.019Z,8.05
2023-09-11T07:15:36.531Z,7.63
2023-09-11T07:18:04.067Z,7.93
2023-09-11T07:20:31.713Z,8.00
2023-09-11T07:22:59.243Z,8.32
2023-09-11T07:25:26.821Z,7.53
2023-09-11T07:27:55.745Z,7.38
2023-09-11T07:30:23.500Z,7.22
2023-09-11T07:32:54.324Z,7.35
2023-09-11T07:35:22.997Z,7.85
2023-09-11T07:37:50.486Z,8.50
2023-09-11T07:40:18.483Z,7.75
2023-09-11T07:42:45.979Z,8.43
2023-09-11T07:45:13.997Z,7.32
2023-09-11T07:47:41.608Z,7.43
2023-09-11T07:50:09.974Z,7.82
2023-09-11T07:52:37.534Z,7.63
2023-09-11T07:55:07.988Z,7.78
2023-09-11T08:00:06.200Z,8.05
2023-09-11T08:02:35.544Z,7.72
2023-09-11T08:05:03.073Z,8.77
2023-09-11T08:07:30.537Z,7.85
2023-09-11T08:10:00.200Z,8.35
2023-09-11T08:12:27.642Z,8.13
2023-09-11T08:14:55.143Z,8.13
2023-09-11T08:17:22.661Z,8.85
2023-09-11T08:19:51.199Z,8.90
2023-09-11T08:22:18.658Z,8.55
2023-09-11T08:24:46.196Z,8.52
2023-09-11T08:27:13.674Z,8.52
2023-09-11T08:29:41.418Z,9.38
2023-09-11T08:32:08.939Z,9.45
2023-09-11T08:34:36.398Z,7.45
2023-09-11T08:37:04.971Z,8.30
2023-09-11T08:39:32.451Z,8.60
2023-09-11T08:42:02.135Z,8.45
2023-09-11T08:44:29.965Z,7.68
2023-09-11T08:47:04.572Z,8.20
2023-09-11T08:49:40.101Z,8.23
2023-09-11T08:52:10.503Z,8.70
2023-09-11T08:57:16.109Z,8.23
2023-09-11T08:59:48.165Z,8.57
2023-09-11T09:02:16.276Z,8.13
2023-09-11T09:04:44.922Z,8.68
2023-09-11T09:07:12.949Z,8.43
2023-09-11T09:09:41.331Z,7.57
2023-09-11T09:12:09.081Z,8.23
2023-09-11T09:14:40.151Z,7.65
2023-09-11T09:17:08.248Z,8.38
2023-09-11T09:19:35.691Z,7.72
2023-09-11T09:22:06.413Z,7.93
2023-09-11T09:24:35.877Z,7.32
2023-09-11T09:27:07.197Z,8.00
2023-09-11T09:29:37.947Z,7.57
2023-09-11T09:32:09.065Z,7.55
2023-09-11T09:34:50.431Z,7.00
2023-09-11T09:37:21.129Z,8.20
2023-09-11T09:39:52.261Z,7.75
2023-09-11T09:42:20.591Z,7.18
2023-09-11T09:44:54.711Z,8.40
2023-09-11T09:47:23.888Z,7.07
2023-09-11T09:49:59.210Z,7.28
2023-09-11T09:52:32.428Z,6.97
2023-09-11T09:55:04.078Z,7.45
2023-09-11T09:57:31.924Z,7.03
2023-09-11T10:00:03.118Z,6.93
2023-09-11T10:02:36.010Z,6.60
2023-09-11T10:05:10.089Z,7.32
2023-09-11T10:07:44.733Z,7.80
2023-09-11T10:10:26.767Z,6.78
2023-09-11T10:13:14.090Z,7.55
2023-09-11T10:15:45.066Z,6.90
2023-09-11T10:18:14.451Z,6.88
2023-09-11T10:20:42.396Z,7.30
2023-09-11T10:23:10.551Z,7.45
2023-09-11T10:25:45.959Z,7.25
2023-09-11T10:28:44.102Z,7.32
2023-09-11T10:31:40.321Z,7.78
2023-09-11T10:34:10.873Z,7.00
2023-09-11T10:36:58.178Z,6.60
2023-09-11T10:39:26.725Z,7.35
2023-09-11T10:41:54.396Z,7.03
2023-09-11T10:44:22.066Z,6.60
2023-09-11T10:46:53.429Z,7.10
2023-09-11T10:49:26.230Z,6.28
2023-09-11T10:51:54.237Z,6.75
2023-09-11T10:54:24.801Z,6.95
2023-09-11T10:56:53.416Z,7.20
2023-09-11T10:59:25.343Z,7.20
2023-09-11T11:01:53.996Z,7.00
2023-09-11T11:04:25.417Z,6.70
2023-09-11T11:07:00.328Z,6.65
2023-09-11T11:09:35.353Z,6.25
2023-09-11T11:12:14.730Z,7.35
2023-09-11T11:14:43.148Z,6.90
2023-09-11T11:17:12.817Z,7.20
2023-09-11T11:20:00.221Z,6.90
2023-09-11T11:22:40.601Z,6.85
2023-09-11T11:25:12.054Z,6.88
2023-09-11T11:27:46.010Z,6.18
2023-09-11T11:30:14.146Z,7.00
2023-09-11T11:32:42.344Z,7.07
2023-09-11T11:35:12.299Z,6.93
2023-09-11T11:37:47.295Z,6.95
2023-09-11T11:40:15.722Z,6.60
2023-09-11T11:42:43.306Z,6.95
2023-09-11T11:45:12.205Z,6.53
2023-09-11T11:47:40.066Z,6.75
2023-09-11T11:50:14.414Z,6.50
2023-09-11T11:52:49.305Z,6.47
2023-09-11T11:55:26.144Z,6.72
2023-09-11T11:57:54.761Z,6.25
2023-09-11T12:00:22.548Z,6.68
2023-09-11T12:02:51.478Z,6.18
2023-09-11T12:05:19.353Z,6.17
2023-09-11T12:07:47.077Z,5.88
2023-09-11T12:10:14.733Z,6.60
2023-09-11T12:12:45.870Z,5.57
2023-09-11T12:15:13.606Z,5.90
2023-09-11T12:17:51.701Z,5.75
2023-09-11T12:20:24.507Z,6.28
2023-09-11T12:22:52.094Z,7.07
2023-09-11T12:25:20.211Z,6.10
2023-09-11T12:27:48.384Z,6.03
2023-09-11T12:30:16.649Z,5.75
2023-09-11T12:32:46.768Z,6.13
2023-09-11T12:35:14.677Z,5.72
2023-09-11T12:37:42.405Z,6.18
2023-09-11T12:40:10.557Z,6.38
2023-09-11T12:42:39.868Z,6.97
2023-09-11T12:45:09.914Z,6.40
2023-09-11T12:47:38.018Z,6.57
2023-09-11T12:50:07.425Z,6.63
2023-09-11T12:52:35.375Z,6.13
2023-09-11T12:55:05.108Z,6.18
2023-09-11T12:57:32.624Z,6.70
2023-09-11T13:00:00.275Z,6.03
2023-09-11T13:02:34.628Z,6.00
2023-09-11T13:05:10.890Z,6.20
2023-09-11T13:07:38.486Z,5.63
2023-09-11T13:10:07.677Z,5.55
2023-09-11T13:12:35.225Z,5.47
2023-09-11T13:15:02.692Z,4.90
2023-09-11T13:17:31.145Z,5.25
2023-09-11T13:20:00.467Z,5.80
2023-09-11T13:22:28.477Z,5.47
2023-09-11T13:24:56.044Z,5.38
2023-09-11T13:27:23.613Z,5.22
2023-09-11T13:29:51.209Z,5.07
2023-09-11T13:32:18.848Z,5.38
2023-09-11T13:34:46.676Z,5.53
2023-09-11T13:37:14.781Z,5.95
2023-09-11T13:39:43.079Z,5.35
2023-09-11T13:42:10.966Z,5.10
2023-09-11T13:44:38.638Z,5.25
2023-09-11T13:47:06.261Z,5.18
2023-09-11T13:49:33.939Z,5.15
2023-09-11T13:52:01.376Z,5.43
2023-09-11T13:54:28.865Z,5.63
2023-09-11T13:56:56.465Z,5.70
2023-09-11T13:59:24.283Z,5.57
2023-09-11T14:01:51.888Z,5.22
2023-09-11T14:04:19.580Z,5.68
2023-09-11T14:06:47.141Z,5.50
2023-09-11T14:09:14.725Z,4.97
2023-09-11T14:11:42.300Z,6.10
2023-09-11T14:14:09.774Z,5.10
2023-09-11T14:16:37.305Z,5.60
2023-09-11T14:19:09.105Z,4.90
2023-09-11T14:21:36.858Z,5.40
2023-09-11T14:24:05.628Z,5.30
2023-09-11T14:26:33.271Z,4.90
2023-09-11T14:29:00.749Z,4.95
2023-09-11T14:31:29.288Z,5.28
2023-09-11T14:33:57.474Z,5.00
2023-09-11T14:36:25.057Z,5.13
2023-09-11T14:38:53.254Z,4.55
2023-09-11T14:41:20.837Z,5.35
2023-09-11T14:43:48.328Z,5.72
2023-09-11T14:46:15.831Z,5.05
2023-09-11T14:48:43.631Z,5.13
2023-09-11T14:51:11.597Z,4.95
2023-09-11T14:53:43.030Z,5.30
2023-09-11T14:56:10.551Z,5.25
2023-09-11T14:58:38.023Z,4.90
2023-09-11T15:01:05.730Z,5.05
2023-09-11T15:03:33.347Z,5.03
2023-09-11T15:06:00.982Z,5.40
2023-09-11T15:08:28.462Z,4.25
2023-09-11T15:11:03.115Z,4.68
2023-09-11T15:13:31.851Z,4.85
2023-09-11T15:15:59.997Z,5.25
2023-09-11T15:18:28.059Z,4.32
2023-09-11T15:20:56.063Z,4.63
2023-09-11T15:23:23.674Z,4.95
2023-09-11T15:25:51.196Z,5.15
2023-09-11T15:28:18.706Z,4.68
2023-09-11T15:30:53.043Z,4.78
2023-09-11T15:33:21.390Z,4.72
2023-09-11T15:36:08.185Z,4.80
2023-09-11T15:38:42.260Z,4.93
2023-09-11T15:41:12.222Z,4.68
2023-09-11T15:43:43.971Z,4.82
2023-09-11T15:46:21.919Z,4.88
2023-09-11T15:48:52.480Z,4.80
2023-09-11T15:51:20.012Z,5.03
2023-09-11T15:53:47.561Z,4.63
2023-09-11T15:56:16.058Z,4.80
2023-09-11T15:58:45.737Z,5.15
2023-09-11T16:03:40.923Z,4.70
2023-09-11T16:06:09.442Z,4.70
2023-09-11T16:08:36.970Z,4.40
2023-09-11T16:11:04.597Z,4.88
2023-09-11T16:13:32.038Z,5.03
2023-09-11T16:15:59.784Z,4.65
2023-09-11T16:18:27.423Z,4.65
2023-09-11T16:20:55.009Z,4.45
2023-09-11T16:23:22.579Z,4.90
2023-09-11T16:25:50.234Z,5.25
2023-09-11T16:28:17.989Z,5.07
2023-09-11T16:30:45.456Z,4.35
2023-09-11T16:33:14.314Z,4.70
2023-09-11T16:35:43.087Z,4.70
2023-09-11T16:38:10.594Z,4.88
2023-09-11T16:40:38.089Z,5.13
2023-09-11T16:43:05.551Z,5.20
2023-09-11T16:45:33.074Z,5.20
2023-09-11T16:48:00.690Z,5.30
2023-09-11T16:50:28.195Z,5.00
2023-09-11T16:52:57.195Z,5.63
2023-09-11T16:55:24.868Z,5.77
2023-09-11T16:57:52.365Z,6.05
2023-09-11T17:00:21.919Z,4.80
2023-09-11T17:02:52.168Z,5.15
2023-09-11T17:05:20.306Z,5.13
2023-09-11T17:07:48.138Z,5.15
2023-09-11T17:10:19.578Z,5.55
2023-09-11T17:12:47.003Z,5.32
2023-09-11T17:15:14.577Z,5.43
2023-09-11T17:17:45.733Z,4.70
2023-09-11T17:20:16.559Z,5.60
2023-09-11T17:22:44.136Z,5.13
2023-09-11T17:25:11.804Z,5.63
2023-09-11T17:27:39.307Z,5.65
2023-09-11T17:30:08.322Z,6.07
2023-09-11T17:32:40.461Z,5.63
2023-09-11T17:35:08.599Z,5.65
2023-09-11T17:37:41.323Z,5.53
2023-09-11T17:40:09.533Z,6.65
2023-09-11T17:42:38.775Z,5.85
2023-09-11T17:45:10.397Z,6.05
2023-09-11T17:47:39.180Z,6.22
2023-09-11T17:50:08.204Z,6.10
2023-09-11T17:52:35.846Z,5.10
2023-09-11T17:55:04.086Z,5.95
2023-09-11T17:57:32.967Z,6.18
2023-09-11T18:00:00.743Z,6.23
2023-09-11T18:02:28.389Z,5.97
2023-09-11T18:04:58.970Z,5.75
2023-09-11T18:07:26.802Z,6.40
2023-09-11T18:09:54.249Z,6.57
2023-09-11T18:12:21.873Z,6.18
2023-09-11T18:14:49.704Z,6.38
2023-09-11T18:17:17.870Z,6.10
2023-09-11T18:19:45.410Z,5.90
2023-09-11T18:22:13.308Z,6.63
2023-09-11T18:24:43.314Z,6.32
2023-09-11T18:27:11.002Z,6.13
2023-09-11T18:29:38.601Z,6.45
2023-09-11T18:32:06.226Z,6.90
2023-09-11T18:34:33.887Z,6.85
2023-09-11T18:37:01.353Z,6.85
2023-09-11T18:39:29.021Z,7.13
2023-09-11T18:41:59.029Z,6.80
2023-09-11T18:46:55.587Z,7.13
2023-09-11T18:49:23.135Z,4.78
2023-09-11T18:51:56.962Z,5.80
2023-09-11T18:54:26.623Z,6.47
2023-09-11T18:56:58.618Z,5.85
2023-09-11T18:59:26.159Z,5.38
2023-09-11T19:02:02.306Z,5.95
2023-09-11T19:04:31.266Z,6.03
2023-09-11T19:07:00.131Z,5.93
2023-09-11T19:09:27.650Z,6.43
2023-09-11T19:11:55.185Z,5.57
2023-09-11T19:14:22.644Z,5.63
2023-09-11T19:16:50.119Z,5.70
2023-09-11T19:19:19.277Z,6.32
2023-09-11T19:21:47.186Z,6.97
2023-09-11T19:24:14.983Z,6.50
2023-09-11T19:26:42.894Z,7.18
2023-09-11T19:29:10.371Z,6.80
2023-09-11T19:31:38.379Z,6.40
2023-09-11T19:34:05.964Z,6.72
2023-09-11T19:36:33.512Z,6.93
2023-09-11T19:39:01.051Z,6.57
2023-09-11T19:41:28.531Z,6.80
2023-09-11T19:43:55.969Z,7.05
2023-09-11T19:46:23.513Z,7.07
2023-09-11T19:48:51.183Z,6.60
2023-09-11T19:51:19.435Z,6.75
2023-09-11T19:53:46.915Z,7.55
2023-09-11T19:56:14.380Z,7.35
2023-09-11T19:58:42.080Z,6.93
2023-09-11T20:01:09.776Z,7.38
2023-09-11T20:03:37.609Z,7.53
2023-09-11T20:06:05.243Z,7.55
2023-09-11T20:08:32.706Z,7.57
2023-09-11T20:11:00.184Z,7.47
2023-09-11T20:13:30.297Z,7.57
2023-09-11T20:18:25.449Z,7.53
2023-09-11T20:20:53.034Z,7.60
2023-09-11T20:23:21.766Z,6.85
2023-09-11T20:25:49.270Z,7.70
2023-09-11T20:28:16.692Z,7.63
2023-09-11T20:30:44.643Z,7.20
2023-09-11T20:33:12.155Z,6.75
2023-09-11T20:35:41.396Z,7.05
2023-09-11T20:38:08.909Z,7.13
2023-09-11T20:40:36.544Z,7.13
2023-09-11T20:43:04.651Z,7.20
2023-09-11T20:45:32.601Z,7.00
2023-09-11T20:48:00.241Z,7.45
2023-09-11T20:50:27.823Z,7.03
2023-09-11T20:52:56.000Z,7.15
2023-09-11T20:55:23.692Z,7.03
2023-09-11T20:57:51.619Z,7.32
2023-09-11T21:00:19.279Z,7.70
2023-09-11T21:02:46.841Z,7.78
2023-09-11T21:05:14.540Z,7.50
2023-09-11T21:07:43.467Z,7.70
2023-09-11T21:10:11.914Z,7.15
2023-09-11T21:12:57.497Z,7.00
2023-09-11T21:15:28.018Z,6.82
2023-09-11T21:17:56.258Z,7.97
2023-09-11T21:20:24.087Z,7.03
2023-09-11T21:22:51.684Z,7.43
2023-09-11T21:25:19.625Z,7.95
2023-09-11T21:27:47.223Z,7.68
2023-09-11T21:30:14.813Z,8.18
2023-09-11T21:32:42.353Z,7.40
2023-09-11T21:35:10.053Z,6.88
2023-09-11T21:37:38.888Z,7.45
2023-09-11T21:40:07.682Z,7.20
2023-09-11T21:42:35.457Z,8.10
2023-09-11T21:45:03.603Z,7.88
2023-09-11T21:47:31.487Z,7.25
2023-09-11T21:49:59.065Z,7.53
2023-09-11T21:52:26.574Z,7.63
2023-09-11T21:54:54.126Z,8.02
2023-09-11T21:57:21.668Z,8.18
2023-09-11T21:59:49.113Z,8.70
2023-09-11T22:02:19.099Z,7.97
2023-09-11T22:04:55.431Z,8.13
2023-09-11T22:07:22.845Z,7.47
2023-09-11T22:09:50.359Z,7.47
2023-09-11T22:12:17.886Z,7.18
2023-09-11T22:14:47.158Z,7.82
2023-09-11T22:17:14.858Z,8.00
2023-09-11T22:19:42.305Z,7.50
2023-09-11T22:22:09.737Z,7.68
2023-09-11T22:24:37.353Z,7.93
2023-09-11T22:27:17.258Z,8.80
2023-09-11T22:29:50.224Z,7.90
2023-09-11T22:32:17.770Z,7.30
2023-09-11T22:34:45.365Z,7.80
2023-09-11T22:37:13.134Z,8.00
2023-09-11T22:39:40.995Z,7.88
2023-09-11T22:42:08.556Z,8.70
2023-09-11T22:44:36.150Z,8.48
2023-09-11T22:47:04.962Z,8.02
2023-09-11T22:49:32.727Z,8.38
2023-09-11T22:52:00.761Z,7.65
2023-09-11T22:54:29.531Z,8.10
2023-09-11T22:56:57.121Z,7.07
2023-09-11T22:59:24.623Z,8.30
2023-09-11T23:01:52.146Z,7.45
2023-09-11T23:04:19.973Z,7.60
2023-09-11T23:06:47.527Z,8.15
2023-09-11T23:09:15.011Z,8.27
2023-09-11T23:11:42.431Z,8.20
2023-09-11T23:14:09.953Z,7.57
2023-09-11T23:16:37.450Z,8.38
2023-09-11T23:19:04.950Z,7.47
2023-09-11T23:21:32.513Z,7.85
2023-09-11T23:24:13.459Z,8.20
2023-09-11T23:26:45.535Z,8.10
2023-09-11T23:29:13.106Z,8.23
2023-09-11T23:31:40.605Z,8.02
2023-09-11T23:34:08.142Z,7.70
2023-09-11T23:36:36.545Z,8.45
2023-09-11T23:39:04.911Z,8.38
2023-09-11T23:41:32.545Z,7.65
2023-09-11T23:44:00.456Z,8.05
2023-09-11T23:46:30.302Z,7.65
2023-09-11T23:48:58.225Z,7.53
2023-09-11T23:51:25.880Z,8.00
2023-09-11T23:53:53.622Z,7.95
2023-09-11T23:56:21.042Z,7.93
2023-09-11T23:58:48.465Z,7.32
